UNR Ag. Experiment Farm, Sparks, Nevada Weather observations

Data are for 10 minute period ending at time listed.
 Day   Time   Solar   Ave.   Ave.  Ave.  Vector  Max.   Baro.   Total    
  of    of     Rad.   Air    Rel.  Wind   Wind   Wind  Press.  Precip.   
Year   Day            Temp.  Hum.  Speed  Dir.   Gust                    
2015   (PST)  Kw/m2    F      %     mph   deg.    mph    mb.     in.     
-------------------------------------------------------------------------
 244   15:50   0.45   77.7    28   10.8   287    16.1   861.2    0.00 
 244   16:00   0.42   77.7    28   10.9   286    17.0   861.1    0.00 
 244   16:10   0.40   77.0    29   10.4   288    17.3   861.1    0.00 
 244   16:20   0.38   77.9    26   11.5   277    15.9   861.0    0.00 
 244   16:30   0.31   78.3    23   11.3   273    21.5   861.0    0.00 
 244   16:40   0.28   81.0    20   11.2   266    18.9   861.1    0.00 
 244   16:50   0.29   81.4    19   13.2   267    19.4   861.1    0.00 
 244   17:00   0.29   76.9    27   12.8   279    20.7   861.1    0.00 
 244   17:10   0.26   77.3    24   12.6   272    19.7   861.1    0.00 
 244   17:20   0.21   78.1    22   15.1   272    21.9   861.1    0.00 
 244   17:30   0.18   76.0    26   13.1   276    19.4   861.1    0.00 
 244   17:40   0.12   74.5    28   13.6   280    18.7   861.1    0.00 
 244   17:50   0.09   73.8    28   13.2   280    19.9   861.1    0.00 
 244   18:00   0.10   73.4    29   12.5   278    18.9   861.1    0.00 
 244   18:10   0.08   72.8    29   13.9   280    19.9   861.2    0.00 
 244   18:20   0.04   72.2    30   13.6   283    20.5   861.2    0.00 
 244   18:30   0.01   71.1    32   11.0   279    16.9   861.3    0.00 
 244   18:40   0.00   70.1    34   10.6   281    18.6   861.5    0.00 
 244   18:50   0.00   69.9    34   11.3   286    18.9   861.6    0.00 
 244   19:00   0.00   69.0    36   12.2   288    20.5   861.7    0.00 
 244   19:10   0.00   69.5    35   13.1   279    20.2   861.8    0.00 
 244   19:20   0.00   68.6    38   11.5   281    18.4   862.0    0.00 
 244   19:30   0.00   68.6    38   10.8   282    16.3   862.2    0.00 
 244   19:40   0.00   67.3    41   10.7   285    18.1   862.3    0.00 
 244   19:50   0.00   67.1    41   11.9   285    17.6   862.4    0.00 
 244   20:00   0.00   66.2    43   10.3   281    16.8   862.5    0.00 
 244   20:10   0.00   67.4    40   12.1   280    18.0   862.5    0.00 
 244   20:20   0.00   67.3    40   10.3   277    15.1   862.6    0.00 
 244   20:30   0.00   66.5    42    9.1   278    14.5   862.8    0.00 
 244   20:40   0.00   67.8    35    6.8   269    12.1   862.9    0.00 
 244   20:50   0.00   68.4    31    3.6   183     6.2   863.1    0.00 
 244   21:00   0.00   67.6    31    4.2   163     7.5   863.2    0.00 
 244   21:10   0.00   69.6    30    2.1   272     4.5   863.2    0.00 
 244   21:20   0.00   66.1    39    4.0   293     6.7   863.2    0.00 
 244   21:30   0.00   66.7    37    2.0   301     4.3   863.2    0.00 
 244   21:40   0.00   65.5    36    1.4    67     2.9   863.2    0.00 
 244   21:50   0.00   64.1    34    3.4   148     5.8   863.2    0.00 
 244   22:00   0.00   62.0    40    3.1   144     5.7   863.3    0.00 
 244   22:10   0.00   61.1    42    1.7   160     3.7   863.3    0.00 
 244   22:20   0.00   60.5    46    0.6    27     2.1   863.3    0.00 
 244   22:30   0.00   58.2    54    1.1    32     2.7   863.3    0.00 
 244   22:40   0.00   58.3    51    3.2    91     4.9   863.3    0.00 
 244   22:50   0.00   60.3    48    2.9    78     4.7   863.4    0.00 
 244   23:00   0.00   57.3    54    2.7    63     3.7   863.3    0.00 
 244   23:10   0.00   56.0    56    1.7   172     4.2   863.4    0.00 
 244   23:20   0.00   57.0    53    0.7    70     2.3   863.3    0.00 
 244   23:30   0.00   55.2    57    2.9   126     4.2   863.4    0.00 
 244   23:40   0.00   57.1    48    2.9   230     4.5   863.5    0.00 
 244   23:50   0.00   57.6    48    1.9   243     3.2   863.5    0.00 
 245    0:00   0.00   56.7    54    2.0   322     3.9   863.5    0.00 
 245    0:10   0.00   54.3    58    0.8   133     2.7   863.6    0.00 
 245    0:20   0.00   54.8    57    1.3   154     2.4   863.6    0.00 
 245    0:30   0.00   56.4    52    1.7   151     3.4   863.7    0.00 
 245    0:40   0.00   52.1    61    1.1   302     2.2   863.6    0.00 
 245    0:50   0.00   51.2    66    2.3   110     3.7   863.6    0.00 
 245    1:00   0.00   52.8    61    2.4   108     3.2   863.6    0.00 
 245    1:10   0.00   52.0    61    3.7   255     5.3   863.5    0.00 
 245    1:20   0.00   50.4    61    2.9   202     4.3   863.5    0.00 
 245    1:30   0.00   52.9    59    2.3   235     4.5   863.6    0.00 
 245    1:40   0.00   50.2    64    1.5   140     4.2   863.7    0.00 
 245    1:50   0.00   49.7    70    1.4   126     2.4   863.7    0.00 
 245    2:00   0.00   49.0    73    1.3   196     3.3   863.7    0.00 
 245    2:10   0.00   50.9    69    0.6   284     2.2   863.8    0.00 
 245    2:20   0.00   49.7    71    1.0   308     2.3   863.7    0.00 
 245    2:30   0.00   47.0    77    0.9   153     1.7   863.7    0.00 
 245    2:40   0.00   45.8    80    0.7   269     3.1   863.7    0.00 
 245    2:50   0.00   45.7    76    1.4   150     3.6   863.8    0.00 
 245    3:00   0.00   47.9    76    2.1   299     3.7   863.8    0.00 
 245    3:10   0.00   45.7    72    2.0   163     3.2   863.8    0.00 
 245    3:20   0.00   47.2    76    1.3   167     4.2   863.8    0.00 
 245    3:30   0.00   47.0    74    3.2   185     4.5   863.8    0.00 
 245    3:40   0.00   46.6    71    3.6   211     4.7   863.8    0.00 
 245    3:50   0.00   46.2    79    2.7   298     5.5   863.8    0.00 
 245    4:00   0.00   47.4    76    3.6   318     6.6   863.8    0.00 
 245    4:10   0.00   45.6    74    2.8    84     4.5   863.9    0.00 
 245    4:20   0.00   44.3    80    1.6    33     4.1   863.9    0.00 
 245    4:30   0.00   43.7    82    1.1   315     3.1   864.0    0.00 
 245    4:40   0.00   42.7    82    0.5   151     2.9   864.1    0.00 
 245    4:50   0.00   43.2    80    3.1   138     3.9   864.1    0.00 
 245    5:00   0.00   44.6    78    3.0   129     5.4   864.1    0.00 
 245    5:10   0.00   43.2    79    3.0   162     4.1   864.1    0.00 
 245    5:20   0.00   43.2    78    2.4   164     3.4   864.1    0.00 
 245    5:30   0.00   43.4    80    1.0   147     2.6   864.2    0.00 
 245    5:40   0.01   44.6    83    3.0   291     6.6   864.3    0.00 
 245    5:50   0.01   44.7    75    2.9   205     4.1   864.4    0.00 
 245    6:00   0.03   44.5    74    2.2   123     4.2   864.5    0.00 
 245    6:10   0.06   45.4    77    2.4    81     4.9   864.5    0.00 
 245    6:20   0.09   47.2    78    0.6    30     2.2   864.6    0.00 
 245    6:30   0.11   48.3    79    0.5    41     1.9   864.6    0.00 
 245    6:40   0.13   50.6    75    0.6   354     1.9   864.6    0.00 
 245    6:50   0.16   51.8    78    1.6   331     3.8   864.6    0.00 
 245    7:00   0.19   53.2    78    1.0   300     2.0   864.6    0.00 
 245    7:10   0.22   54.9    73    2.4   336     4.2   864.4    0.00 
 245    7:20   0.25   58.0    66    0.6    97     1.5   864.3    0.00 
 245    7:30   0.28   60.9    55    1.4    31     3.3   864.2    0.00 
 245    7:40   0.31   61.9    56    0.5   349     1.8   864.1    0.00 
 245    7:50   0.34   64.1    50    0.8    16     2.3   864.1    0.00 
 245    8:00   0.36   63.8    49    2.9   359     4.8   864.0    0.00 
 245    8:10   0.39   65.3    46    1.7     1     4.1   864.0    0.00 
 245    8:20   0.42   66.6    42    1.2   323     3.4   863.9    0.00 
 245    8:30   0.45   67.8    36    2.0   354     3.8   863.9    0.00 
 245    8:40   0.47   69.4    34    3.0     9     4.4   864.0    0.00 
 245    8:50   0.50   70.3    33    3.7   357     5.9   864.1    0.00 
 245    9:00   0.53   71.1    30    3.6   355     5.8   864.1    0.00 
 245    9:10   0.55   71.6    32    3.7   323     6.1   864.1    0.00 
 245    9:20   0.57   72.2    29    3.8   349     6.1   864.2    0.00 
 245    9:30   0.59   72.7    30    3.4   326     6.9   864.1    0.00 
 245    9:40   0.62   74.0    26    1.1   355     4.5   864.1    0.00 
 245    9:50   0.64   74.6    27    2.9    10     5.6   864.1    0.00 
 245   10:00   0.65   75.5    29    4.1    50     8.3   864.1    0.00 
 245   10:10   0.67   75.4    29    4.5    12     8.6   863.9    0.00 
 245   10:20   0.70   75.5    28    4.1   338     7.2   863.8    0.00 
 245   10:30   0.71   76.0    25    3.2   308     7.2   863.7    0.00 
 245   10:40   0.72   76.8    22    4.3   288     7.9   863.6    0.00 
 245   10:50   0.74   77.3    21    5.2   270     9.3   863.5    0.00 
 245   11:00   0.74   77.7    26    3.9   304     7.7   863.4    0.00 
 245   11:10   0.73   77.6    24    6.8   292    12.8   863.2    0.00 
 245   11:20   0.76   78.3    21    5.1   258     9.3   863.2    0.00 
 245   11:30   0.76   79.0    20    7.0   265    13.1   863.0    0.00 
 245   11:40   0.78   78.9    19    2.7   314     7.6   862.9    0.00 
 245   11:50   0.78   80.9    15    6.6   172    17.3   862.8    0.00 
 245   12:00   0.79   82.5    14   10.3   190    20.0   862.6    0.00 
 245   12:10   0.79   83.3    13   10.5   161    17.5   862.6    0.00 
 245   12:20   0.79   84.0    13   12.1   176    19.9   862.5    0.00 
 245   12:30   0.79   83.3    13   12.0   179    17.5   862.5    0.00 
 245   12:40   0.79   83.9    13   14.3   183    22.1   862.4    0.00 
 245   12:50   0.79   84.2    13   12.3   184    17.9   862.3    0.00 
 245   13:00   0.78   84.8    13   12.8   180    19.2   862.2    0.00 
 245   13:10   0.77   84.6    13   14.4   183    20.5   862.1    0.00 
 245   13:20   0.76   84.7    14   13.5   181    20.5   862.0    0.00 
 245   13:30   0.75   84.9    14   12.2   198    21.5   861.9    0.00 
 245   13:40   0.73   84.8    14   12.8   193    18.4   861.8    0.00 
 245   13:50   0.72   84.0    14   13.5   179    19.3   861.8    0.00 
 245   14:00   0.70   82.8    17   12.4   223    22.1   861.5    0.00 
 245   14:10   0.68   82.0    17   11.6   250    23.5   861.6    0.00 
 245   14:20   0.67   81.3    19   10.0   271    19.4   861.6    0.00 
 245   14:30   0.65   80.4    20   12.9   269    20.0   861.5    0.00 
 245   14:40   0.64   79.8    21   13.2   272    22.5   861.5    0.00 
 245   14:50   0.63   79.6    20   13.8   272    21.0   861.4    0.00 
 245   15:00   0.62   79.2    22   13.8   276    21.0   861.3    0.00 
 245   15:10   0.61   79.1    21   12.8   274    19.4   861.2    0.00 
 245   15:20   0.62   78.3    22   15.7   282    24.9   861.2    0.00 
 245   15:30   0.55   78.1    22   15.3   278    23.7   861.2    0.00 
 245   15:40   0.45   78.3    21   16.0   271    22.1   861.2    0.00 

Return to Sparks, Nevada, UNR Ag Experiment Farm graphs page.


Western Regional Climate Center,wrcc@dri.edu